Time;durP1;ratioP1;P1;durP2;ratioP2;P2;SDS_P1;SDS_P2;PMS_P1;PMS_P2;Temp;Humidity;BMP_temperature;BMP_pressure;BME280_temperature;BME280_humidity;BME280_pressure;Samples;Min_cycle;Max_cycle;Signal;HPM_P1;HPM_P2
2022/01/20 00:00:15;;;;;;;29.50;14.68;;;;;;;-9.36;71.58;101345.83;1744657;81;20873;-85
2022/01/20 00:02:37;;;;;;;24.80;12.90;;;;;;;-9.39;71.57;101349.14;1744397;81;21091;-85
2022/01/20 00:27:12;;;;;;;22.42;12.20;;;;;;;-9.44;72.03;101337.98;1744875;81;21362;-85
2022/01/20 00:32:31;;;;;;;28.98;14.98;;;;;;;-9.44;72.05;101339.25;1745913;81;20877;-86
2022/01/20 00:37:28;;;;;;;18.10;11.18;;;;;;;-9.49;71.84;101344.17;1744565;81;20933;-86
2022/01/20 00:39:56;;;;;;;25.17;12.15;;;;;;;-9.51;71.75;101341.98;1744823;82;20925;-85
2022/01/20 00:42:22;;;;;;;19.90;11.05;;;;;;;-9.52;71.69;101341.52;1744937;81;21406;-83
2022/01/20 00:44:49;;;;;;;20.48;11.68;;;;;;;-9.54;71.65;101345.67;1744443;81;20955;-84
2022/01/20 00:47:16;;;;;;;19.00;10.05;;;;;;;-9.55;71.60;101349.04;1734365;82;20984;-83
2022/01/20 00:49:44;;;;;;;18.07;10.63;;;;;;;-9.57;71.62;101349.39;1744515;81;21423;-82
2022/01/20 00:52:11;;;;;;;21.30;12.03;;;;;;;-9.55;71.62;101350.72;1756896;80;20972;-82
2022/01/20 00:54:39;;;;;;;25.80;12.78;;;;;;;-9.56;71.57;101336.28;1758061;81;21469;-83
2022/01/20 00:57:06;;;;;;;17.85;10.43;;;;;;;-9.59;71.55;101325.22;1757718;81;20920;-82
2022/01/20 00:59:34;;;;;;;20.50;11.08;;;;;;;-9.58;71.53;101323.56;1757757;80;20864;-82
2022/01/20 01:02:03;;;;;;;15.83;9.05;;;;;;;-9.59;71.55;101311.25;1757747;80;20940;-82
2022/01/20 01:04:30;;;;;;;15.38;9.13;;;;;;;-9.61;71.61;101300.19;1757885;80;20971;-82
2022/01/20 01:09:32;;;;;;;18.10;11.10;;;;;;;-9.61;71.93;101298.06;1757891;81;21350;-83
2022/01/20 01:12:03;;;;;;;21.42;9.55;;;;;;;-9.61;72.20;101291.30;1758325;80;20929;-82
2022/01/20 01:14:30;;;;;;;15.75;9.48;;;;;;;-9.59;72.40;101298.56;1758066;80;20956;-80
2022/01/20 01:24:40;;;;;;;17.73;9.83;;;;;;;-9.48;72.82;101282.42;1757874;80;21407;-83
2022/01/20 01:27:10;;;;;;;20.62;11.45;;;;;;;-9.48;72.88;101277.34;1758076;80;20991;-84
2022/01/20 01:32:34;;;;;;;19.52;9.68;;;;;;;-9.43;73.09;101283.42;1758032;81;21560;-84
2022/01/20 01:34:54;;;;;;;17.95;10.05;;;;;;;-9.40;73.08;101286.48;1756769;81;20939;-85
2022/01/20 01:40:01;;;;;;;18.20;8.85;;;;;;;-9.37;72.89;101286.98;1757634;81;20908;-83
2022/01/20 01:42:35;;;;;;;16.12;8.95;;;;;;;-9.36;72.89;101285.74;1758037;81;20975;-83
2022/01/20 01:44:57;;;;;;;14.38;7.90;;;;;;;-9.33;72.85;101294.75;1757019;81;21140;-83
2022/01/20 01:47:24;;;;;;;12.25;8.45;;;;;;;-9.31;72.74;101286.78;1741016;81;20912;-82
2022/01/20 01:49:51;;;;;;;16.23;8.05;;;;;;;-9.29;72.69;101290.23;1757786;81;21409;-83
2022/01/20 01:52:18;;;;;;;14.85;8.13;;;;;;;-9.26;72.65;101286.92;1757812;80;20931;-82
2022/01/20 01:54:45;;;;;;;13.55;7.75;;;;;;;-9.24;72.56;101289.10;1757853;81;21402;-85
2022/01/20 01:57:12;;;;;;;15.98;8.45;;;;;;;-9.23;72.46;101287.86;1757828;80;21115;-86
2022/01/20 01:59:40;;;;;;;21.20;9.43;;;;;;;-9.22;72.36;101283.25;1757726;80;20923;-86
2022/01/20 02:02:20;;;;;;;20.60;10.65;;;;;;;-9.19;72.26;101283.33;1757371;81;21434;-88
2022/01/20 02:08:32;;;;;;;28.42;13.53;;;;;;;-9.16;71.96;101276.21;1758272;80;21465;-85
2022/01/20 02:19:03;;;;;;;16.10;8.78;;;;;;;-9.12;71.94;101271.69;1711760;81;20980;-82
2022/01/20 02:21:32;;;;;;;16.55;8.50;;;;;;;-9.11;72.06;101274.70;1757706;80;21485;-83
2022/01/20 02:24:00;;;;;;;18.73;9.95;;;;;;;-9.10;72.10;101277.67;1758185;81;21139;-83
2022/01/20 02:26:28;;;;;;;12.00;8.00;;;;;;;-9.07;72.14;101273.98;1758534;80;20857;-84
2022/01/20 02:28:55;;;;;;;14.38;8.23;;;;;;;-9.05;71.97;101270.19;1758474;80;21434;-83
2022/01/20 02:31:23;;;;;;;13.48;8.58;;;;;;;-9.04;72.07;101273.20;1759005;80;20984;-85
2022/01/20 02:33:50;;;;;;;15.55;9.05;;;;;;;-9.02;72.12;101267.77;1759713;80;20953;-85
2022/01/20 02:36:18;;;;;;;20.75;11.08;;;;;;;-9.01;72.13;101266.94;1740421;81;21107;-86
2022/01/20 02:38:53;;;;;;;19.57;9.23;;;;;;;-9.01;71.68;101263.13;1758575;81;20885;-85
2022/01/20 02:46:46;;;;;;;14.73;7.45;;;;;;;-8.99;71.62;101247.52;1758573;81;20856;-86
2022/01/20 02:49:16;;;;;;;13.30;8.13;;;;;;;-9.01;71.62;101241.53;1758395;80;20888;-86
2022/01/20 02:51:50;;;;;;;14.85;8.35;;;;;;;-9.04;71.57;101239.77;1758261;80;20932;-87
2022/01/20 02:54:17;;;;;;;12.25;6.67;;;;;;;-9.04;71.59;101237.64;1758427;80;20959;-86
2022/01/20 02:56:45;;;;;;;12.68;8.48;;;;;;;-9.06;71.58;101237.58;1758456;80;21413;-86
2022/01/20 02:59:13;;;;;;;14.23;7.03;;;;;;;-9.08;71.55;101235.81;1758317;81;21054;-85
2022/01/20 03:01:41;;;;;;;14.20;7.83;;;;;;;-9.10;71.56;101231.95;1758162;80;21141;-86
2022/01/20 03:04:09;;;;;;;10.58;7.40;;;;;;;-9.12;71.54;101231.04;1757871;80;21058;-87
2022/01/20 03:06:37;;;;;;;10.23;7.30;;;;;;;-9.17;71.57;101223.70;1758450;81;21002;-87
2022/01/20 03:09:04;;;;;;;12.35;7.60;;;;;;;-9.18;71.78;101218.19;1758549;81;20979;-87
2022/01/20 03:11:31;;;;;;;14.38;7.83;;;;;;;-9.17;71.90;101216.08;1758499;81;21011;-86
2022/01/20 03:13:58;;;;;;;15.08;8.13;;;;;;;-9.14;71.99;101215.30;1758530;81;21140;-86
2022/01/20 03:16:25;;;;;;;10.60;6.67;;;;;;;-9.11;72.16;101216.66;1758220;81;20955;-88
2022/01/20 03:18:52;;;;;;;14.18;6.85;;;;;;;-9.06;72.24;101207.52;1758050;81;20932;-84
2022/01/20 03:21:20;;;;;;;14.38;8.08;;;;;;;-9.00;72.29;101205.16;1757813;81;21541;-85
2022/01/20 03:23:47;;;;;;;15.35;8.88;;;;;;;-8.93;72.21;101208.33;1757866;81;20924;-86
2022/01/20 03:26:15;;;;;;;13.08;7.92;;;;;;;-8.86;72.17;101201.73;1757979;81;21515;-86
2022/01/20 03:28:43;;;;;;;12.20;6.83;;;;;;;-8.81;72.06;101210.34;1757956;80;20889;-88
2022/01/20 03:31:09;;;;;;;11.38;7.60;;;;;;;-8.78;71.98;101199.86;1758029;81;20928;-89
2022/01/20 03:33:37;;;;;;;13.13;7.00;;;;;;;-8.73;71.90;101210.16;1758047;80;21411;-88
2022/01/20 03:36:04;;;;;;;17.70;8.48;;;;;;;-8.69;71.69;101209.81;1758014;81;20944;-88
2022/01/20 03:38:44;;;;;;;12.98;8.60;;;;;;;-8.66;71.50;101210.77;1757884;80;21140;-84
2022/01/20 03:41:10;;;;;;;19.17;10.90;;;;;;;-8.65;71.29;101220.53;1757581;80;20932;-85
2022/01/20 03:43:37;;;;;;;29.00;14.20;;;;;;;-8.69;70.87;101227.22;1757971;81;20880;-86
2022/01/20 03:46:09;;;;;;;30.35;13.08;;;;;;;-8.79;70.43;101227.35;1757992;80;21426;-85
2022/01/20 03:48:38;;;;;;;18.42;10.23;;;;;;;-8.89;70.20;101226.66;1757734;81;21437;-86
2022/01/20 03:51:06;;;;;;;21.48;10.88;;;;;;;-9.01;70.19;101236.03;1757590;81;21179;-89
2022/01/20 03:53:38;;;;;;;23.05;12.28;;;;;;;-9.08;70.41;101227.78;1757938;81;21588;-88
2022/01/20 03:56:06;;;;;;;21.68;12.07;;;;;;;-9.07;70.55;101226.09;1758231;81;20919;-88
2022/01/20 03:58:35;;;;;;;15.15;9.30;;;;;;;-9.08;70.45;101219.30;1756391;80;20983;-88
2022/01/20 04:01:03;;;;;;;17.17;9.70;;;;;;;-9.12;70.44;101213.27;1757964;81;20992;-86
2022/01/20 04:03:31;;;;;;;19.85;10.18;;;;;;;-9.17;70.52;101207.19;1755980;81;21250;-84
2022/01/20 04:06:00;;;;;;;19.20;10.38;;;;;;;-9.21;70.70;101212.58;1746997;80;20877;-86
2022/01/20 04:08:33;;;;;;;17.52;9.50;;;;;;;-9.24;70.89;101217.98;1740954;81;20896;-85
2022/01/20 04:11:01;;;;;;;19.55;10.72;;;;;;;-9.24;70.95;101215.45;1744413;81;20981;-86
2022/01/20 04:13:31;;;;;;;14.83;9.03;;;;;;;-9.25;71.16;101215.87;1745451;81;20853;-84
2022/01/20 04:16:10;;;;;;;16.62;9.23;;;;;;;-9.24;71.27;101220.11;1744777;81;21542;-85
2022/01/20 04:18:32;;;;;;;16.67;8.25;;;;;;;-9.21;71.28;101218.07;1744436;81;21476;-85
2022/01/20 04:20:59;;;;;;;16.52;8.60;;;;;;;-9.18;71.33;101208.88;1744553;81;20892;-87
2022/01/20 04:23:26;;;;;;;13.85;8.58;;;;;;;-9.13;71.44;101208.16;1745358;81;20905;-88
2022/01/20 04:25:53;;;;;;;17.92;10.38;;;;;;;-9.10;71.59;101204.42;1745361;81;20884;-86
2022/01/20 04:28:20;;;;;;;15.00;8.98;;;;;;;-9.05;71.70;101202.87;1745585;81;21450;-87
2022/01/20 04:30:47;;;;;;;21.77;10.75;;;;;;;-8.99;71.77;101202.64;1745188;81;20873;-87
2022/01/20 04:33:19;;;;;;;19.57;9.88;;;;;;;-8.91;71.79;101193.98;1735250;82;20952;-85
2022/01/20 04:35:47;;;;;;;24.72;12.30;;;;;;;-8.81;71.75;101190.86;1744977;81;20940;-86
2022/01/20 04:38:14;;;;;;;18.30;10.40;;;;;;;-8.71;71.71;101179.67;1745040;81;21406;-85
2022/01/20 04:40:42;;;;;;;19.67;11.00;;;;;;;-8.61;71.66;101176.58;1745059;81;21102;-86
2022/01/20 04:43:09;;;;;;;21.65;11.28;;;;;;;-8.53;71.63;101172.57;1745160;81;20893;-87
2022/01/20 04:45:44;;;;;;;20.40;10.48;;;;;;;-8.43;71.55;101171.97;1744727;81;20948;-84
2022/01/20 04:59:07;;;;;;;;;;;;;;;-8.43;70.87;101194.00;1747716;81;20996;-83
2022/01/20 05:01:34;;;;;;;23.12;11.93;;;;;;;-8.44;70.63;101194.84;1744818;81;20097;-83
2022/01/20 05:04:04;;;;;;;25.97;12.35;;;;;;;-8.47;70.49;101210.88;1745182;81;20897;-86
2022/01/20 05:06:39;;;;;;;23.92;12.65;;;;;;;-8.51;70.05;101217.08;1738754;81;21333;-85
2022/01/20 05:09:04;;;;;;;25.30;13.13;;;;;;;-8.64;69.82;101220.58;1750982;81;20976;-86
2022/01/20 05:11:35;;;;;;;26.75;13.03;;;;;;;-8.71;70.08;101217.80;1750853;80;20876;-85
2022/01/20 05:14:02;;;;;;;29.60;13.60;;;;;;;-8.70;70.37;101232.25;1750903;80;21198;-87
2022/01/20 05:16:29;;;;;;;23.07;12.10;;;;;;;-8.68;70.46;101231.89;1750845;81;21043;-87
2022/01/20 05:18:58;;;;;;;25.50;11.70;;;;;;;-8.61;70.55;101231.23;1750851;81;21162;-91
2022/01/20 05:21:27;;;;;;;21.33;11.20;;;;;;;-8.59;70.22;101225.78;1751253;81;21434;-81
2022/01/20 05:23:55;;;;;;;17.10;9.33;;;;;;;-8.61;70.33;101217.25;1750662;81;20968;-89
2022/01/20 05:26:22;;;;;;;23.18;11.43;;;;;;;-8.61;70.23;101217.25;1751394;81;20857;-89
2022/01/20 05:28:49;;;;;;;21.50;9.98;;;;;;;-8.61;70.33;101214.30;1750675;80;20928;-84
2022/01/20 05:31:17;;;;;;;15.90;8.93;;;;;;;-8.58;70.43;101209.70;1750847;81;21865;-84
2022/01/20 05:33:52;;;;;;;17.10;8.03;;;;;;;-8.54;70.58;101211.52;1750825;81;20940;-86
2022/01/20 05:36:20;;;;;;;15.80;8.85;;;;;;;-8.48;70.73;101215.50;1750602;82;21517;-85
2022/01/20 05:38:49;;;;;;;20.77;9.88;;;;;;;-8.45;70.83;101217.26;1750714;81;20892;-85
2022/01/20 05:41:18;;;;;;;16.80;9.45;;;;;;;-8.43;70.98;101217.74;1733984;82;21442;-84
2022/01/20 05:43:46;;;;;;;15.68;7.62;;;;;;;-8.37;71.19;101213.22;1750964;80;21168;-83
2022/01/20 05:46:17;;;;;;;14.90;7.62;;;;;;;-8.27;71.36;101214.31;1751641;82;20975;-85
2022/01/20 05:48:48;;;;;;;17.42;8.00;;;;;;;-8.22;71.43;101204.72;1750793;82;20984;-85
2022/01/20 05:51:22;;;;;;;29.50;13.25;;;;;;;-8.14;71.49;101207.45;1750615;80;20980;-85
2022/01/20 05:53:49;;;;;;;19.27;10.50;;;;;;;-8.06;71.65;101210.20;1750468;81;20888;-85
2022/01/20 05:56:17;;;;;;;19.15;8.73;;;;;;;-7.97;71.69;101207.47;1751003;82;21090;-86
2022/01/20 05:58:44;;;;;;;22.80;9.40;;;;;;;-7.89;71.58;101202.58;1750898;81;20936;-87
2022/01/20 06:01:12;;;;;;;20.57;9.70;;;;;;;-7.81;71.48;101199.79;1751001;80;21132;-83
2022/01/20 06:03:40;;;;;;;15.38;8.13;;;;;;;-7.73;71.45;101206.36;1750219;80;20869;-83
2022/01/20 06:06:11;;;;;;;17.07;9.35;;;;;;;-7.65;71.42;101211.20;1755949;80;20975;-94
2022/01/20 06:08:45;;;;;;;34.15;12.88;;;;;;;-7.59;71.37;101203.71;1741907;81;21239;-89
2022/01/20 06:11:09;;;;;;;24.55;13.20;;;;;;;-7.50;71.24;101201.38;1758216;81;20924;-88
2022/01/20 06:13:37;;;;;;;23.45;12.33;;;;;;;-7.47;70.95;101193.35;1758795;81;20924;-86
2022/01/20 06:16:05;;;;;;;21.52;11.83;;;;;;;-7.43;70.60;101197.70;1758486;80;20968;-91
2022/01/20 06:18:33;;;;;;;23.52;11.78;;;;;;;-7.42;70.32;101190.10;1758254;80;20948;-86
2022/01/20 06:21:01;;;;;;;25.02;13.28;;;;;;;-7.41;70.16;101185.44;1759026;81;20929;-88
2022/01/20 06:23:28;;;;;;;19.32;10.65;;;;;;;-7.39;69.97;101190.58;1758417;81;20880;-90
2022/01/20 06:25:56;;;;;;;21.62;10.53;;;;;;;-7.37;69.96;101188.51;1758909;80;21015;-88
2022/01/20 06:28:23;;;;;;;25.62;13.05;;;;;;;-7.33;69.96;101189.03;1742265;81;20939;-91
2022/01/20 06:30:50;;;;;;;26.62;12.88;;;;;;;-7.28;69.89;101182.75;1759225;80;20928;-89
2022/01/20 06:33:17;;;;;;;28.85;13.50;;;;;;;-7.25;69.89;101182.81;1760252;81;21091;-89
2022/01/20 06:35:51;;;;;;;;;;;;;;;-7.20;69.92;101178.70;1762810;81;21049;-90
2022/01/20 06:38:20;;;;;;;29.98;13.50;;;;;;;-7.15;69.87;101182.20;1757458;81;20080;-87
2022/01/20 06:40:49;;;;;;;23.73;13.62;;;;;;;-7.11;69.93;101181.86;1758987;80;20892;-87
2022/01/20 06:43:17;;;;;;;23.22;11.60;;;;;;;-7.06;69.99;101173.03;1758435;80;20912;-85
2022/01/20 06:45:45;;;;;;;32.35;13.35;;;;;;;-7.00;70.09;101172.75;1758686;81;21812;-87
2022/01/20 06:48:13;;;;;;;27.93;14.03;;;;;;;-6.95;70.07;101167.73;1758320;81;21421;-91
2022/01/20 06:50:45;;;;;;;21.93;11.83;;;;;;;-6.86;70.09;101169.61;1755815;81;20988;-80
2022/01/20 06:53:12;;;;;;;26.82;14.43;;;;;;;-6.81;70.00;101166.73;1758052;81;21128;-87
2022/01/20 06:55:39;;;;;;;24.60;13.83;;;;;;;-6.79;69.91;101157.00;1758559;81;20916;-86
2022/01/20 06:58:06;;;;;;;36.73;17.67;;;;;;;-6.76;69.82;101143.45;1758337;81;21118;-88
2022/01/20 07:00:36;;;;;;;31.57;16.67;;;;;;;-6.76;69.84;101144.72;1758527;81;20940;-91
2022/01/20 07:03:03;;;;;;;28.90;15.78;;;;;;;-6.77;69.93;101129.84;1758984;80;20975;-93
2022/01/20 07:05:29;;;;;;;41.00;17.73;;;;;;;-6.75;70.00;101139.66;1759551;80;20943;-91
2022/01/20 07:07:59;;;;;;;34.80;17.57;;;;;;;-6.73;69.82;101135.88;1761068;81;20928;-94
2022/01/20 07:10:27;;;;;;;38.15;17.98;;;;;;;-6.75;69.51;101137.53;1760680;81;21242;-92
2022/01/20 07:12:55;;;;;;;37.45;20.12;;;;;;;-6.76;69.49;101135.80;1760389;81;20987;-85
2022/01/20 07:15:22;;;;;;;46.45;20.68;;;;;;;-6.78;69.42;101143.83;1760028;81;20872;-86
2022/01/20 07:17:51;;;;;;;46.53;19.12;;;;;;;-6.79;69.54;101142.13;1759654;80;20943;-86
2022/01/20 07:20:20;;;;;;;38.58;19.62;;;;;;;-6.77;69.74;101146.84;1759926;80;20884;-86
2022/01/20 07:22:58;;;;;;;44.30;19.27;;;;;;;-6.74;70.08;101145.61;1760525;79;21052;-88
2022/01/20 07:25:25;;;;;;;38.58;19.82;;;;;;;-6.71;70.29;101145.27;1761219;79;20810;-87
2022/01/20 07:27:54;;;;;;;35.50;19.92;;;;;;;-6.65;70.35;101154.70;1788799;80;20981;-87
2022/01/20 07:30:21;;;;;;;37.73;18.70;;;;;;;-6.59;70.46;101143.78;1792301;77;20848;-86
2022/01/20 07:32:50;;;;;;;37.03;20.52;;;;;;;-6.58;70.45;101143.81;1793088;77;20963;-89
2022/01/20 07:35:19;;;;;;;50.88;23.77;;;;;;;-6.52;70.57;101150.28;1792233;77;21130;-90
2022/01/20 07:37:47;;;;;;;38.70;18.42;;;;;;;-6.46;70.63;101138.91;1792859;77;20911;-87
2022/01/20 07:40:13;;;;;;;43.75;20.30;;;;;;;-6.38;70.60;101133.08;1792781;77;20868;-88
2022/01/20 07:42:43;;;;;;;40.80;19.42;;;;;;;-6.35;70.50;101128.91;1792879;77;20879;-87
2022/01/20 07:45:12;;;;;;;37.28;19.98;;;;;;;-6.30;70.56;101129.83;1791373;77;21105;-86
2022/01/20 07:47:41;;;;;;;37.40;18.27;;;;;;;-6.22;70.54;101122.33;1791260;77;21102;-92
2022/01/20 07:50:09;;;;;;;40.12;20.40;;;;;;;-6.15;70.44;101122.01;1793200;77;20978;-91
2022/01/20 07:52:37;;;;;;;40.30;22.30;;;;;;;-6.09;70.45;101117.86;1793564;78;21128;-90
2022/01/20 07:55:07;;;;;;;36.77;20.85;;;;;;;-6.01;70.47;101128.61;1793071;77;20868;-92
2022/01/20 07:57:34;;;;;;;47.35;23.40;;;;;;;-5.92;70.51;101127.02;1766803;78;21014;-91
2022/01/20 08:00:09;;;;;;;42.95;20.60;;;;;;;-5.80;70.35;101128.91;1793096;77;21108;-94
2022/01/20 08:02:35;;;;;;;48.20;25.52;;;;;;;-5.75;70.15;101126.00;1790157;77;20946;-89
2022/01/20 08:05:02;;;;;;;49.63;24.07;;;;;;;-5.71;70.05;101132.88;1792613;77;20962;-82
2022/01/20 08:07:29;;;;;;;53.92;25.40;;;;;;;-5.66;70.04;101136.77;1789657;78;20947;-82
2022/01/20 08:09:59;;;;;;;62.65;25.95;;;;;;;-5.62;70.06;101130.88;1789172;77;20867;-83
2022/01/20 08:12:28;;;;;;;61.92;27.58;;;;;;;-5.56;70.16;101127.11;1789733;77;21105;-83
2022/01/20 08:14:58;;;;;;;53.80;26.55;;;;;;;-5.48;70.26;101125.53;1788997;78;20994;-80
2022/01/20 08:17:33;;;;;;;55.88;26.82;;;;;;;-5.39;70.21;101120.97;1786874;77;20916;-84
2022/01/20 08:20:00;;;;;;;66.92;33.80;;;;;;;-5.30;70.22;101121.08;1789659;78;20930;-84
2022/01/20 08:22:28;;;;;;;55.85;29.30;;;;;;;-5.23;70.40;101124.14;1789732;80;20951;-87
2022/01/20 08:24:55;;;;;;;54.85;27.45;;;;;;;-5.12;70.56;101116.61;1787839;80;21711;-85
2022/01/20 08:27:22;;;;;;;56.48;29.20;;;;;;;-5.00;70.71;101114.22;1787038;80;21563;-85
2022/01/20 08:29:49;;;;;;;50.23;25.80;;;;;;;-4.89;70.82;101122.02;1787057;79;20919;-87
2022/01/20 08:32:17;;;;;;;47.13;23.27;;;;;;;-4.79;70.91;101119.13;1787019;80;21461;-87
2022/01/20 08:34:47;;;;;;;44.05;22.37;;;;;;;-4.72;70.83;101118.34;1785732;80;21377;-87
2022/01/20 08:37:33;;;;;;;46.68;24.02;;;;;;;-4.71;70.51;101118.80;1787013;80;21116;-84
2022/01/20 08:40:04;;;;;;;43.17;23.83;;;;;;;-4.72;70.41;101114.51;1786976;79;20852;-84
2022/01/20 08:42:35;;;;;;;41.53;23.07;;;;;;;-4.70;70.33;101127.33;1787066;80;20852;-84
2022/01/20 08:45:00;;;;;;;42.90;22.40;;;;;;;-4.71;69.94;101125.59;1786496;80;20958;-84
2022/01/20 08:47:27;;;;;;;47.17;24.37;;;;;;;-4.74;69.71;101123.02;1787185;79;21413;-85
2022/01/20 08:49:54;;;;;;;49.88;24.10;;;;;;;-4.78;69.77;101119.55;1758551;80;21785;-86
2022/01/20 08:52:28;;;;;;;49.00;23.95;;;;;;;-4.80;69.89;101116.15;1787058;80;20864;-84
2022/01/20 08:54:54;;;;;;;45.88;26.33;;;;;;;-4.85;69.99;101111.37;1786823;80;20924;-85
2022/01/20 08:57:22;;;;;;;54.75;27.93;;;;;;;-4.86;70.05;101117.36;1772592;80;20908;-83
2022/01/20 08:59:50;;;;;;;43.83;23.75;;;;;;;-4.85;70.12;101116.50;1786584;80;20879;-83
2022/01/20 09:02:17;;;;;;;46.75;24.25;;;;;;;-4.79;70.43;101120.41;1786870;79;21787;-83
2022/01/20 09:04:44;;;;;;;50.52;26.07;;;;;;;-4.73;70.53;101114.52;1786729;80;20967;-84
2022/01/20 09:07:31;;;;;;;47.48;25.27;;;;;;;-4.67;70.68;101110.32;1784369;79;20840;-84
2022/01/20 09:10:00;;;;;;;53.92;28.62;;;;;;;-4.58;70.88;101104.41;1786942;80;20923;-83
2022/01/20 09:15:28;;;;;;;49.65;26.07;;;;;;;-4.35;71.15;101098.67;1786817;80;21571;-84
2022/01/20 09:17:57;;;;;;;54.55;27.60;;;;;;;-4.19;71.30;101090.27;1786676;79;20967;-86
2022/01/20 09:20:24;;;;;;;50.45;27.87;;;;;;;-3.98;71.58;101075.47;1786952;80;20939;-85
2022/01/20 09:22:52;;;;;;;39.03;21.95;;;;;;;-3.75;71.73;101080.33;1787116;80;20840;-85
2022/01/20 09:25:19;;;;;;;37.80;21.17;;;;;;;-3.56;71.67;101067.20;1786718;80;20907;-83
2022/01/20 09:27:50;;;;;;;35.25;18.90;;;;;;;-3.37;71.53;101069.42;1734146;80;20844;-85
2022/01/20 09:30:21;;;;;;;31.15;20.43;;;;;;;-3.21;71.39;101057.94;1786986;79;20872;-86
2022/01/20 09:33:00;;;;;;;34.30;18.90;;;;;;;-3.11;71.21;101062.27;1786708;79;20871;-84
2022/01/20 09:35:30;;;;;;;35.20;18.42;;;;;;;-3.02;71.20;101050.74;1787089;80;20904;-83
2022/01/20 09:37:57;;;;;;;34.15;21.07;;;;;;;-2.94;71.04;101054.59;1758239;80;20971;-78
2022/01/20 09:40:24;;;;;;;38.95;22.37;;;;;;;-2.86;70.98;101050.78;1787033;80;21102;-82
2022/01/20 09:42:53;;;;;;;37.42;20.35;;;;;;;-2.78;70.82;101043.53;1785069;80;20990;-85
2022/01/20 09:45:21;;;;;;;35.50;21.87;;;;;;;-2.67;70.80;101039.66;1787016;79;20864;-82
2022/01/20 09:47:48;;;;;;;43.85;22.55;;;;;;;-2.52;70.73;101034.98;1786585;79;21046;-80
2022/01/20 09:50:24;;;;;;;32.48;17.65;;;;;;;-2.37;70.68;101022.14;1782680;80;26899;-79
2022/01/20 09:53:09;;;;;;;27.90;15.50;;;;;;;-2.19;70.68;101019.14;1786525;79;21159;-78
2022/01/20 09:55:41;;;;;;;23.15;14.13;;;;;;;-2.04;70.46;101009.27;1786335;80;20867;-78
2022/01/20 09:58:10;;;;;;;27.80;14.90;;;;;;;-1.95;70.24;100995.97;1786361;80;20856;-79
2022/01/20 10:00:39;;;;;;;29.65;16.75;;;;;;;-1.87;70.12;100995.93;1786385;80;20864;-80
2022/01/20 10:03:12;;;;;;;31.40;15.30;;;;;;;-1.73;70.16;100991.62;1786457;79;20959;-82
2022/01/20 10:05:49;;;;;;;30.13;17.50;;;;;;;-1.56;70.05;100994.55;1758397;80;21144;-80
2022/01/20 10:08:26;;;;;;;28.15;14.50;;;;;;;-1.33;70.00;101003.46;1751691;81;20999;-85
2022/01/20 10:11:13;;;;;;;22.32;13.05;;;;;;;-1.10;69.76;101005.46;1752933;81;20971;-89
2022/01/20 10:14:00;;;;;;;23.67;13.53;;;;;;;-0.87;68.94;100996.73;1733252;82;20865;-84
2022/01/20 10:16:45;;;;;;;23.70;14.43;;;;;;;-0.74;68.51;100998.36;1753415;82;20980;-82
2022/01/20 10:19:26;;;;;;;21.35;12.58;;;;;;;-0.66;67.62;100994.02;1752455;82;21122;-79
2022/01/20 10:21:53;;;;;;;20.77;13.62;;;;;;;-0.67;67.27;100996.19;1752276;82;20893;-84
2022/01/20 10:24:26;;;;;;;23.83;14.15;;;;;;;-0.70;67.13;100991.48;1752605;82;20964;-82
2022/01/20 10:27:13;;;;;;;24.52;13.08;;;;;;;-0.76;67.23;100987.21;1752362;82;20873;-81
2022/01/20 10:29:44;;;;;;;25.15;13.65;;;;;;;-0.75;67.30;100989.37;1752151;82;20928;-82
2022/01/20 10:32:14;;;;;;;25.85;13.53;;;;;;;-0.71;67.47;100984.19;1750865;82;22211;-82
2022/01/20 10:34:44;;;;;;;23.10;14.38;;;;;;;-0.68;67.30;100979.45;1726873;82;20932;-83
2022/01/20 10:37:18;;;;;;;31.90;16.87;;;;;;;-0.69;67.51;100985.03;1752131;82;20911;-80
2022/01/20 10:39:47;;;;;;;22.05;13.38;;;;;;;-0.73;67.49;100960.61;1751435;82;20913;-81
2022/01/20 10:42:20;;;;;;;25.77;12.95;;;;;;;-0.72;67.68;100961.02;1752524;82;20999;-84
2022/01/20 10:44:54;;;;;;;20.77;12.78;;;;;;;-0.73;67.80;100952.45;1752358;82;21220;-83
2022/01/20 10:47:33;;;;;;;24.72;14.50;;;;;;;-0.68;67.97;100945.97;1752221;82;20936;-83
2022/01/20 10:50:12;;;;;;;23.32;14.85;;;;;;;-0.57;68.17;100927.84;1752666;82;20912;-81
2022/01/20 10:52:44;;;;;;;25.50;14.30;;;;;;;-0.34;68.29;100925.04;1726736;82;20872;-83
2022/01/20 10:55:28;;;;;;;25.62;14.75;;;;;;;-0.12;67.86;100912.78;1751762;82;21019;-84
2022/01/20 10:57:59;;;;;;;26.73;14.70;;;;;;;0.06;67.62;100916.42;1752336;82;21159;-85
2022/01/20 11:00:26;;;;;;;20.37;11.48;;;;;;;0.21;67.05;100910.23;1752200;82;20983;-83
2022/01/20 11:02:56;;;;;;;22.45;12.80;;;;;;;0.27;66.52;100900.27;1752187;82;20909;-81
2022/01/20 11:05:26;;;;;;;24.67;13.18;;;;;;;0.27;66.43;100904.13;1752529;82;20972;-82
2022/01/20 11:07:54;;;;;;;18.80;11.57;;;;;;;0.30;66.51;100890.77;1735798;82;21007;-83
2022/01/20 11:10:24;;;;;;;20.15;13.13;;;;;;;0.33;66.20;100894.59;1726320;82;21564;-83
2022/01/20 11:13:13;;;;;;;29.00;15.15;;;;;;;0.30;66.34;100876.59;1781453;79;20904;-85
2022/01/20 11:15:43;;;;;;;28.40;14.05;;;;;;;0.33;66.26;100873.95;1780091;80;20888;-84
2022/01/20 11:18:10;;;;;;;24.50;13.72;;;;;;;0.30;66.32;100864.98;1781045;80;20908;-86
2022/01/20 11:20:44;;;;;;;22.80;12.53;;;;;;;0.25;66.44;100859.04;1781083;79;20927;-81
2022/01/20 11:23:15;;;;;;;20.70;13.25;;;;;;;0.28;66.49;100851.69;1715161;82;20959;-87
2022/01/20 11:25:44;;;;;;;20.95;12.70;;;;;;;0.29;66.60;100846.52;1716922;83;20925;-84
2022/01/20 11:28:25;;;;;;;21.65;13.43;;;;;;;0.31;66.40;100846.06;1779465;80;20946;-83
2022/01/20 11:31:05;;;;;;;16.37;11.75;;;;;;;0.27;66.41;100837.07;1780655;80;20896;-82
2022/01/20 11:33:44;;;;;;;18.65;12.13;;;;;;;0.23;66.38;100835.00;1749796;80;20951;-82
2022/01/20 11:36:27;;;;;;;23.32;14.43;;;;;;;0.20;66.49;100833.31;1743697;82;21115;-79
2022/01/20 11:39:03;;;;;;;22.25;12.37;;;;;;;0.19;66.60;100832.03;1717477;83;21031;-82
2022/01/20 11:41:46;;;;;;;20.25;12.30;;;;;;;0.22;66.75;100837.14;1780732;80;20880;-83
2022/01/20 11:44:28;;;;;;;28.20;13.18;;;;;;;0.24;66.59;100830.69;1780826;80;21386;-82
2022/01/20 11:47:05;;;;;;;23.73;12.23;;;;;;;0.20;66.67;100829.45;1780771;79;20900;-80
2022/01/20 11:49:43;;;;;;;22.10;11.80;;;;;;;0.17;66.86;100826.89;1780573;80;21241;-80
2022/01/20 11:52:09;;;;;;;25.45;13.40;;;;;;;0.15;66.99;100817.47;1782818;79;20923;-80
2022/01/20 11:54:41;;;;;;;25.25;12.55;;;;;;;0.10;66.97;100816.70;1782369;80;20962;-82
2022/01/20 11:57:29;;;;;;;23.32;13.43;;;;;;;0.02;67.07;100808.20;1781273;80;20880;-84
2022/01/20 12:00:00;;;;;;;24.05;13.35;;;;;;;-0.02;67.20;100815.15;1780966;80;20860;-84
2022/01/20 12:02:37;;;;;;;24.52;13.62;;;;;;;-0.01;67.27;100818.97;1781498;80;21794;-86
2022/01/20 12:05:18;;;;;;;27.30;11.93;;;;;;;0.01;67.20;100809.94;1781159;80;20950;-88
2022/01/20 12:07:49;;;;;;;24.35;12.90;;;;;;;0.00;67.09;100810.83;1778271;80;20904;-87
2022/01/20 12:10:26;;;;;;;24.67;14.40;;;;;;;-0.04;67.12;100807.87;1780901;80;21012;-87
2022/01/20 12:12:53;;;;;;;23.38;13.15;;;;;;;-0.03;67.36;100806.98;1781295;80;21556;-90
2022/01/20 12:15:22;;;;;;;26.05;14.23;;;;;;;0.05;67.29;100804.31;1703499;80;21912;-89
2022/01/20 12:17:55;;;;;;;31.45;15.98;;;;;;;0.11;67.16;100800.34;1781474;80;21377;-86
2022/01/20 12:20:23;;;;;;;21.55;14.45;;;;;;;0.16;66.91;100796.84;1781124;80;20915;-84
2022/01/20 12:22:50;;;;;;;23.15;13.22;;;;;;;0.21;66.38;100789.03;1744253;82;20912;-85
2022/01/20 12:25:21;;;;;;;21.05;13.55;;;;;;;0.19;66.19;100780.46;1744412;81;20861;-87
2022/01/20 12:27:48;;;;;;;22.07;14.50;;;;;;;0.20;66.30;100779.58;1718599;83;21467;-88
2022/01/20 12:30:23;;;;;;;24.52;14.28;;;;;;;0.21;66.23;100773.56;1781399;79;21393;-88
2022/01/20 12:33:09;;;;;;;26.87;14.18;;;;;;;0.25;66.29;100779.09;1781257;80;20888;-88
2022/01/20 12:35:48;;;;;;;22.45;14.33;;;;;;;0.27;66.19;100781.62;1744089;82;20999;-85
2022/01/20 12:38:34;;;;;;;20.15;12.95;;;;;;;0.27;65.97;100778.63;1717744;82;20976;-85